Warwick, RI

3:27 PM EDT on July 29, 2016 (GMT -0400)
Green State | | Change Station

Elev 62 ft 41.72 °N, 71.43 °W | Updated 36 minutes ago

Mostly Cloudy
Mostly Cloudy
80 °F
Feels Like 83 °F
N
12
Wind Variable Wind from NE

Today
High -- | Low -- °F
--% Chance of Precip.
Yesterday
High -- | Low -- °F
Precip. -- in
Pressure 29.83 in
Visibility 10.0 miles
Clouds Few 1200 ft
Few 1800 ft
Scattered Clouds 10000 ft
Mostly Cloudy 16000 ft
Mostly Cloudy 25000 ft
Heat Index 83 °F
Dew Point 68 °F
Humidity 67%
Rainfall 0.19 in
Snow Depth Not available.
5:37 AM 8:06 PM
Waning Crescent, 19% visible
METAR KPVD 291851Z 05010KT 10SM FEW012 FEW018 SCT100 BKN160 BKN250 27/20 A2983 RMK AO2 SLP101 T02670200
Pressure 29.83 in
Visibility 10.0 miles
Clouds Few 1200 ft
Few 1800 ft
Scattered Clouds 10000 ft
Mostly Cloudy 16000 ft
Mostly Cloudy 25000 ft
Heat Index 83 °F
Dew Point 68 °F
Humidity 67%
Rainfall 0.19 in
Snow Depth Not available.
5:37 AM 8:06 PM
Waning Crescent, 19% visible
METAR KPVD 291851Z 05010KT 10SM FEW012 FEW018 SCT100 BKN160 BKN250 27/20 A2983 RMK AO2 SLP101 T02670200

10-Day Weather Forecast

Almanac

Astronomy

Jul. 29, 2016 Rise Set
Actual Time
Civil Twilight
Nautical Twilight
Astronomical Twilight
Moon
Length of Visible Light
Length of Day
Tomorrow will be .
, % of the Moon is Illuminated

Today's Extremes

State Highs State Lows

Community

WunderPhotos

Upload Photos

1,928,399 photos uploaded!

WunderBlog® & News

Nearby

Air Quality

  Air Quality AQ Index Pollutant
Not available.

Snow Depth

Station Depth Elevation

Earthquake Activity

City Distance Mag. Time & Date
Minimum magnitude displayed is 2.5.

Coastal Water Temperatures

Place Temperature

Stations

Nearby Weather Stations

Station Location Temp. Windchill Dew Point Humidity Wind Precip. Elev Updated Type
                   

Watches & Warnings

There are currently no watches in effect.